HOU weather

William P Hobby Airport
Houston, Texas, United States

Public forecast

Using degrees Fahrenheit for public forecast. Weather courtesy of forecast.io.

Current aviation weather report (METAR) for William P Hobby Airport

Retrieved 2019/10/17 03:53 UTC (8 minutes ago):

KHOU 170353Z 01011KT 10SM BKN050 19/13 A3008 RMK AO2 SLP189 T01890133

Aviation forecast (TAF) for William P Hobby Airport

Retrieved 2019-10-17 00:22 UTC (4 hours ago):

TAF KHOU 162320Z 1700/1724 02009KT P6SM SCT015 BKN022 OVC040 FM170200 02008KT P6SM BKN035 FM170800 03006KT P6SM SCT035 BKN250 FM171600 05007KT P6SM BKN250